CheckWX is a tool to help pilots better visualize weather data.  It is not intended as a substitute for an official pre-flight weather briefing.

18:05:50 UTC

EGFF METAR
Cardiff International Airport
Cardiff, United Kingdom
Current

16 mins ago

EGFF 121750Z AUTO 29009KT 9999 NCD 19/09 Q1027
Observed
Jul-12 @ 17:50 UTC
Wind
  • 290° at 9 KTS
Visibility
10,000+ meters
Flight Rules
VFR
Cloud Levels
  • Clear skies
Temperature
19°C / 66°F
Dewpoint
C / 48°F
Humidity
52%
Altimeter
30.32" Hg
Pressure
1026.92 hPa
Previous

46 mins ago

EGFF 121720Z AUTO 30010KT 9999 NCD 20/08 Q1027
Observed
Jul-12 @ 17:20 UTC
Wind
  • 300° at 10 KTS
Visibility
10,000+ meters
Flight Rules
VFR
Cloud Levels
  • Clear skies
Temperature
20°C / 68°F
Dewpoint
C / 46°F
Humidity
46%
Altimeter
30.32" Hg
Pressure
1026.92 hPa
Previous

1 hour ago

EGFF 121650Z AUTO 30010KT 9999 NCD 20/08 Q1027
Observed
Jul-12 @ 16:50 UTC
Wind
  • 300° at 10 KTS
Visibility
10,000+ meters
Flight Rules
VFR
Cloud Levels
  • Clear skies
Temperature
20°C / 68°F
Dewpoint
C / 46°F
Humidity
46%
Altimeter
30.32" Hg
Pressure
1026.92 hPa